Time;durP1;ratioP1;P1;durP2;ratioP2;P2;SDS_P1;SDS_P2;PMS_P1;PMS_P2;Temp;Humidity;BMP_temperature;BMP_pressure;BME280_temperature;BME280_humidity;BME280_pressure;Samples;Min_cycle;Max_cycle;Signal;HPM_P1;HPM_P2
2021/12/30 00:01:37;;;;;;;20.80;4.60;;;14.40;99.90;;;;;;4975730;28;20231;-83
2021/12/30 00:04:03;;;;;;;18.25;4.53;;;14.40;99.90;;;;;;4975578;28;20221;-84
2021/12/30 00:06:36;;;;;;;20.15;4.70;;;14.40;99.90;;;;;;4975405;28;20177;-84
2021/12/30 00:09:03;;;;;;;15.35;4.93;;;14.50;99.90;;;;;;4974862;28;20196;-82
2021/12/30 00:11:28;;;;;;;15.27;4.05;;;14.50;99.90;;;;;;4974959;28;20162;-85
2021/12/30 00:13:55;;;;;;;15.65;3.92;;;14.50;99.90;;;;;;4974965;28;20195;-78
2021/12/30 00:16:20;;;;;;;17.17;4.25;;;14.40;99.90;;;;;;4975242;28;20674;-82
2021/12/30 00:18:47;;;;;;;14.77;3.22;;;14.40;99.90;;;;;;4975194;28;20269;-78
2021/12/30 00:21:13;;;;;;;10.60;2.83;;;14.40;99.90;;;;;;4975440;28;20264;-80
2021/12/30 00:23:39;;;;;;;8.55;3.10;;;14.50;99.90;;;;;;4975284;28;20166;-85
2021/12/30 00:26:05;;;;;;;17.00;2.83;;;14.50;99.90;;;;;;4975134;28;20177;-86
2021/12/30 00:28:31;;;;;;;9.95;2.15;;;14.50;99.90;;;;;;4974996;28;20550;-80
2021/12/30 00:30:57;;;;;;;8.85;2.53;;;14.60;99.90;;;;;;4974841;28;20197;-83
2021/12/30 00:33:22;;;;;;;8.48;2.15;;;14.70;99.90;;;;;;4975128;28;20162;-79
2021/12/30 00:35:49;;;;;;;11.40;2.08;;;14.60;99.90;;;;;;4975216;28;20173;-84
2021/12/30 00:38:15;;;;;;;10.75;2.55;;;14.50;99.90;;;;;;4974966;28;20192;-85
2021/12/30 00:40:42;;;;;;;7.05;1.83;;;14.50;99.90;;;;;;4974857;28;20225;-85
2021/12/30 00:43:07;;;;;;;3.05;1.42;;;14.40;99.90;;;;;;4975122;28;20166;-86
2021/12/30 00:45:34;;;;;;;7.07;1.92;;;14.50;99.90;;;;;;4975223;28;20185;-78
2021/12/30 00:48:01;;;;;;;7.38;1.38;;;14.50;99.90;;;;;;4975404;28;20174;-80
2021/12/30 00:50:28;;;;;;;3.92;1.35;;;14.50;99.90;;;;;;4975158;28;20258;-84
2021/12/30 00:52:54;;;;;;;3.05;1.65;;;14.40;99.90;;;;;;4974887;28;20162;-82
2021/12/30 00:55:20;;;;;;;7.80;1.13;;;14.40;99.90;;;;;;4974864;28;20562;-86
2021/12/30 00:57:46;;;;;;;7.40;1.63;;;14.40;99.90;;;;;;4974590;28;20239;-81
2021/12/30 01:00:15;;;;;;;4.95;1.15;;;14.50;99.90;;;;;;4974294;28;20551;-84
2021/12/30 01:02:41;;;;;;;3.50;1.38;;;14.50;99.90;;;;;;4974992;28;20166;-85
2021/12/30 01:05:08;;;;;;;4.18;1.23;;;14.50;99.90;;;;;;4975058;28;20189;-84
2021/12/30 01:07:35;;;;;;;4.78;1.20;;;14.50;99.90;;;;;;4978575;28;20543;-86
2021/12/30 01:10:01;;;;;;;4.60;0.82;;;14.50;99.90;;;;;;4978072;28;20194;-81
2021/12/30 01:12:28;;;;;;;3.38;1.02;;;14.50;99.90;;;;;;4978319;28;20177;-86
2021/12/30 01:14:53;;;;;;;3.85;1.10;;;14.50;99.90;;;;;;4978955;28;20189;-79
2021/12/30 01:17:40;;;;;;;4.25;1.00;;;14.50;99.90;;;;;;4978426;28;20283;-78
2021/12/30 01:20:07;;;;;;;3.38;1.48;;;14.50;99.90;;;;;;4978084;28;20181;-80
2021/12/30 01:22:33;;;;;;;2.22;0.80;;;14.50;99.90;;;;;;4978549;28;20176;-83
2021/12/30 01:24:59;;;;;;;2.03;0.75;;;14.50;99.90;;;;;;4977942;28;20627;-81
2021/12/30 01:27:25;;;;;;;3.75;1.15;;;14.60;99.90;;;;;;4977659;28;20174;-82
2021/12/30 01:29:50;;;;;;;2.08;0.80;;;14.50;99.90;;;;;;4977452;28;20193;-78
2021/12/30 01:32:16;;;;;;;2.65;0.70;;;14.60;99.90;;;;;;4992541;28;20647;-85
2021/12/30 01:34:42;;;;;;;4.07;0.60;;;14.60;99.90;;;;;;4977792;28;20166;-85
2021/12/30 01:37:08;;;;;;;2.63;0.77;;;14.50;99.90;;;;;;4977309;28;20233;-85
2021/12/30 01:39:38;;;;;;;1.25;0.70;;;14.60;99.90;;;;;;4976962;28;20197;-82
2021/12/30 01:42:06;;;;;;;2.40;0.70;;;14.60;99.90;;;;;;4977567;28;20173;-85
2021/12/30 01:44:33;;;;;;;1.67;0.60;;;14.60;99.90;;;;;;4977268;28;20162;-86
2021/12/30 01:46:59;;;;;;;1.20;0.63;;;14.60;99.90;;;;;;4977330;28;20185;-85
2021/12/30 01:49:26;;;;;;;2.13;0.80;;;14.60;99.90;;;;;;4977555;28;20213;-85
2021/12/30 01:51:53;;;;;;;0.60;0.50;;;14.60;99.90;;;;;;4977586;28;20170;-85
2021/12/30 01:54:19;;;;;;;3.90;1.00;;;14.50;99.90;;;;;;4977168;28;20186;-85
2021/12/30 01:56:45;;;;;;;0.88;0.60;;;14.60;99.90;;;;;;4977088;28;20202;-85
2021/12/30 01:59:12;;;;;;;2.90;0.60;;;14.60;99.90;;;;;;4977049;28;20182;-85
2021/12/30 02:01:38;;;;;;;3.78;0.90;;;14.60;99.90;;;;;;4976108;28;20523;-83
2021/12/30 02:04:04;;;;;;;1.40;0.73;;;14.60;99.90;;;;;;4976791;28;20166;-85
2021/12/30 02:06:29;;;;;;;3.15;0.98;;;14.50;99.90;;;;;;4977089;28;20174;-85
2021/12/30 02:08:55;;;;;;;1.90;1.50;;;14.50;99.90;;;;;;4976607;28;20200;-85
2021/12/30 02:11:22;;;;;;;3.08;1.85;;;14.50;99.90;;;;;;4976676;28;20177;-77
2021/12/30 02:13:52;;;;;;;4.97;3.38;;;14.60;99.90;;;;;;4976790;28;20657;-81
2021/12/30 02:16:20;;;;;;;5.53;3.47;;;14.60;99.90;;;;;;4976597;28;20224;-84
2021/12/30 02:18:46;;;;;;;7.43;3.33;;;14.60;99.90;;;;;;4991065;28;20647;-86
2021/12/30 02:21:12;;;;;;;3.20;2.60;;;14.50;99.90;;;;;;4976998;28;20173;-84
2021/12/30 02:23:38;;;;;;;1.90;1.80;;;14.60;99.90;;;;;;4977260;28;20623;-85
2021/12/30 02:26:25;;;;;;;2.70;2.13;;;14.50;99.90;;;;;;4977054;28;20177;-84
2021/12/30 02:28:51;;;;;;;2.50;1.90;;;14.50;99.90;;;;;;4976819;28;20190;-85
2021/12/30 02:31:20;;;;;;;2.42;1.90;;;14.60;99.90;;;;;;4976849;28;20166;-82
2021/12/30 02:33:46;;;;;;;3.15;2.45;;;14.60;99.90;;;;;;4977185;28;20174;-85
2021/12/30 02:36:14;;;;;;;3.35;2.42;;;14.50;99.90;;;;;;4979003;28;20209;-81
2021/12/30 02:38:45;;;;;;;2.17;1.98;;;14.50;99.90;;;;;;4979238;28;20662;-80
2021/12/30 02:41:15;;;;;;;2.70;2.50;;;14.50;99.90;;;;;;4979423;28;20639;-82
2021/12/30 02:43:42;;;;;;;3.10;2.30;;;14.50;99.90;;;;;;4978527;28;20170;-80
2021/12/30 02:46:08;;;;;;;4.78;2.92;;;14.50;99.90;;;;;;4976011;28;20546;-85
2021/12/30 02:48:35;;;;;;;2.40;2.20;;;14.50;99.90;;;;;;4975545;28;20190;-85
2021/12/30 02:51:04;;;;;;;5.03;3.17;;;14.60;99.90;;;;;;4975822;28;20154;-79
2021/12/30 02:53:30;;;;;;;2.50;2.30;;;14.60;99.90;;;;;;4976053;28;20196;-84
2021/12/30 02:55:56;;;;;;;2.95;2.00;;;14.60;99.90;;;;;;4975819;28;20210;-84
2021/12/30 02:58:24;;;;;;;3.92;2.22;;;14.60;99.90;;;;;;4975778;28;20263;-78
2021/12/30 03:01:04;;;;;;;3.58;2.30;;;14.50;99.90;;;;;;4976118;28;20201;-85
2021/12/30 03:03:29;;;;;;;1.70;1.60;;;14.50;99.90;;;;;;4975527;28;20190;-85
2021/12/30 03:05:57;;;;;;;3.47;1.67;;;14.60;99.90;;;;;;4975778;28;20259;-84
2021/12/30 03:08:23;;;;;;;1.45;1.35;;;14.60;99.90;;;;;;4975517;28;20189;-79
2021/12/30 03:10:50;;;;;;;0.90;0.90;;;14.70;99.90;;;;;;4975881;28;20166;-85
2021/12/30 03:13:19;;;;;;;1.75;1.00;;;14.70;99.90;;;;;;4975588;28;20170;-85
2021/12/30 03:15:46;;;;;;;0.93;0.93;;;14.70;99.90;;;;;;4975846;28;20166;-84
2021/12/30 03:18:12;;;;;;;0.77;0.60;;;14.70;99.90;;;;;;4990815;28;20240;-85
2021/12/30 03:20:38;;;;;;;0.60;0.60;;;14.70;99.90;;;;;;4975744;28;20245;-83
2021/12/30 03:23:04;;;;;;;0.40;0.40;;;14.80;99.90;;;;;;4975516;28;20666;-85
2021/12/30 03:25:30;;;;;;;0.30;0.30;;;14.70;99.90;;;;;;4975325;28;20639;-81
2021/12/30 03:27:56;;;;;;;0.95;0.30;;;14.80;99.90;;;;;;4975226;28;20188;-84
2021/12/30 03:30:22;;;;;;;0.30;0.30;;;14.80;99.90;;;;;;4974587;28;20210;-82
2021/12/30 03:32:47;;;;;;;0.30;0.30;;;14.80;99.90;;;;;;4975632;28;20300;-84
2021/12/30 03:35:14;;;;;;;0.40;0.30;;;14.80;99.90;;;;;;4975664;28;20207;-83
2021/12/30 03:37:40;;;;;;;0.30;0.30;;;14.90;99.90;;;;;;4973938;28;20206;-79
2021/12/30 03:40:10;;;;;;;0.30;0.30;;;14.90;99.90;;;;;;4975245;28;20196;-84
2021/12/30 03:42:36;;;;;;;1.00;0.63;;;15.00;99.90;;;;;;4975400;28;20188;-86
2021/12/30 03:45:04;;;;;;;0.20;0.20;;;15.00;99.90;;;;;;4990560;28;20595;-84
2021/12/30 03:47:30;;;;;;;0.40;0.30;;;15.00;99.90;;;;;;4975261;28;20292;-81
2021/12/30 03:49:55;;;;;;;0.20;0.20;;;15.00;99.90;;;;;;4975069;28;20648;-84
2021/12/30 03:52:29;;;;;;;0.20;0.20;;;15.00;99.90;;;;;;4975078;28;20638;-81
2021/12/30 03:54:55;;;;;;;0.20;0.20;;;15.00;99.90;;;;;;4973708;28;20192;-78
2021/12/30 03:57:20;;;;;;;0.10;0.10;;;15.00;99.90;;;;;;4975391;28;20221;-86
2021/12/30 03:59:46;;;;;;;0.22;0.22;;;15.00;99.90;;;;;;4974783;28;20676;-85
2021/12/30 04:02:12;;;;;;;0.30;0.30;;;15.00;99.90;;;;;;4974737;28;20165;-85
2021/12/30 04:04:37;;;;;;;0.32;0.30;;;15.10;99.90;;;;;;4990099;28;20166;-84
2021/12/30 04:07:03;;;;;;;0.93;0.30;;;15.00;99.90;;;;;;4974993;28;20166;-84
2021/12/30 04:09:31;;;;;;;0.22;0.22;;;15.00;99.90;;;;;;4975154;28;20256;-78
2021/12/30 04:11:57;;;;;;;0.20;0.20;;;15.10;99.90;;;;;;4976469;28;20623;-85
2021/12/30 04:14:26;;;;;;;0.38;0.30;;;15.00;99.90;;;;;;4977344;28;20220;-86
2021/12/30 04:16:52;;;;;;;0.90;0.30;;;15.00;99.90;;;;;;4975530;28;20694;-82
2021/12/30 04:19:18;;;;;;;0.25;0.25;;;15.00;99.90;;;;;;4976183;28;20185;-79
2021/12/30 04:21:44;;;;;;;0.38;0.38;;;15.00;99.90;;;;;;4976342;28;20646;-86
2021/12/30 04:24:10;;;;;;;1.23;0.40;;;15.00;99.90;;;;;;4976528;28;20619;-85
2021/12/30 04:26:35;;;;;;;0.63;0.60;;;15.00;99.90;;;;;;4977850;28;20174;-86
2021/12/30 04:29:01;;;;;;;2.70;0.38;;;15.00;99.90;;;;;;4977839;28;20196;-84
2021/12/30 04:31:27;;;;;;;0.63;0.63;;;15.00;99.90;;;;;;4978037;28;20177;-85
2021/12/30 04:33:53;;;;;;;0.90;0.65;;;14.90;99.90;;;;;;4975908;28;20526;-79
2021/12/30 04:36:18;;;;;;;0.90;0.75;;;14.90;99.90;;;;;;4976191;28;20193;-86
2021/12/30 04:38:44;;;;;;;1.73;0.90;;;14.90;99.90;;;;;;4975695;28;20194;-86
2021/12/30 04:41:10;;;;;;;0.95;0.90;;;15.00;99.90;;;;;;4978939;28;20169;-82
2021/12/30 04:43:36;;;;;;;1.88;1.50;;;14.90;99.90;;;;;;4981194;28;20168;-84
2021/12/30 04:46:02;;;;;;;1.85;1.75;;;14.90;99.90;;;;;;4981694;28;20161;-85
2021/12/30 04:48:28;;;;;;;3.67;1.73;;;15.00;99.90;;;;;;4980802;28;20189;-78
2021/12/30 04:50:54;;;;;;;2.35;1.73;;;14.90;99.90;;;;;;4981149;28;20182;-79
2021/12/30 04:53:21;;;;;;;2.20;1.98;;;15.00;99.90;;;;;;4980859;28;20172;-80
2021/12/30 04:55:47;;;;;;;2.20;1.98;;;15.00;99.90;;;;;;4980892;28;20268;-85
2021/12/30 04:58:13;;;;;;;2.08;1.90;;;14.90;99.90;;;;;;4980758;28;20217;-77
2021/12/30 05:00:39;;;;;;;1.60;1.50;;;14.90;99.90;;;;;;4980776;28;20181;-79
2021/12/30 05:05:40;;;;;;;1.65;1.55;;;14.90;99.90;;;;;;4980643;28;20542;-83
2021/12/30 05:08:06;;;;;;;1.30;1.20;;;14.90;99.90;;;;;;4981085;28;20166;-84
2021/12/30 05:10:33;;;;;;;1.55;1.30;;;14.80;99.90;;;;;;4981074;28;20657;-83
2021/12/30 05:13:00;;;;;;;3.92;1.13;;;14.80;99.90;;;;;;4980883;28;20249;-85
2021/12/30 05:15:25;;;;;;;1.00;0.90;;;14.90;99.90;;;;;;4996243;28;20174;-80
2021/12/30 05:17:51;;;;;;;1.02;0.60;;;14.80;99.90;;;;;;4981136;28;20221;-82
2021/12/30 05:20:16;;;;;;;4.45;0.82;;;14.90;99.90;;;;;;4980692;28;20188;-86
2021/12/30 05:22:43;;;;;;;0.82;0.80;;;14.90;99.90;;;;;;4981002;28;20950;-84
2021/12/30 05:25:10;;;;;;;0.52;0.52;;;14.90;99.90;;;;;;4980898;28;20166;-84
2021/12/30 05:27:36;;;;;;;0.50;0.50;;;14.90;99.90;;;;;;4981128;28;20176;-83
2021/12/30 05:30:04;;;;;;;0.63;0.63;;;14.90;99.90;;;;;;4980769;28;20185;-83
2021/12/30 05:32:29;;;;;;;1.65;0.60;;;14.90;99.90;;;;;;4980900;28;20220;-82
2021/12/30 05:34:55;;;;;;;0.93;0.60;;;14.90;99.90;;;;;;4981248;28;20165;-79
2021/12/30 05:37:20;;;;;;;0.98;0.43;;;14.90;99.90;;;;;;4980779;28;20557;-80
2021/12/30 05:39:46;;;;;;;3.80;0.70;;;14.90;99.90;;;;;;4981200;28;20186;-86
2021/12/30 05:42:12;;;;;;;0.55;0.50;;;15.00;99.90;;;;;;4981152;28;20200;-81
2021/12/30 05:44:37;;;;;;;0.63;0.60;;;15.00;99.90;;;;;;4980881;28;20236;-85
2021/12/30 05:47:03;;;;;;;0.90;0.90;;;15.00;99.90;;;;;;4980797;28;20224;-79
2021/12/30 05:49:29;;;;;;;2.50;1.00;;;14.90;99.90;;;;;;4980565;28;20192;-80
2021/12/30 05:51:54;;;;;;;1.33;1.23;;;15.00;99.90;;;;;;4979758;28;20174;-78
2021/12/30 05:54:20;;;;;;;1.45;1.35;;;14.90;99.90;;;;;;4976749;28;20216;-85
2021/12/30 05:56:45;;;;;;;6.93;1.75;;;14.90;99.90;;;;;;4977541;28;20194;-86
2021/12/30 05:59:11;;;;;;;2.05;1.50;;;14.90;99.90;;;;;;4977662;28;20220;-85
2021/12/30 06:01:37;;;;;;;4.75;3.33;;;14.90;99.90;;;;;;4977867;28;20623;-85
2021/12/30 06:04:03;;;;;;;2.92;2.42;;;15.00;99.90;;;;;;4978255;28;20256;-86
2021/12/30 06:06:28;;;;;;;3.25;2.58;;;15.10;99.90;;;;;;4977960;28;20535;-81
2021/12/30 06:08:55;;;;;;;4.72;2.70;;;15.00;99.90;;;;;;4977225;28;20189;-86
2021/12/30 06:11:21;;;;;;;3.17;2.40;;;15.00;99.90;;;;;;4977473;28;20248;-84
2021/12/30 06:13:46;;;;;;;2.33;2.13;;;15.10;99.90;;;;;;4977488;28;20158;-87
2021/12/30 06:16:12;;;;;;;1.80;1.70;;;15.10;99.90;;;;;;4977341;28;20194;-78
2021/12/30 06:18:37;;;;;;;1.67;1.50;;;15.10;99.90;;;;;;4977456;28;20197;-84
2021/12/30 06:21:03;;;;;;;1.98;1.77;;;15.10;99.90;;;;;;4977394;28;20213;-86
2021/12/30 06:23:29;;;;;;;1.92;1.73;;;15.10;99.90;;;;;;4977526;28;20172;-86
2021/12/30 06:25:54;;;;;;;2.08;1.67;;;15.10;99.90;;;;;;4976596;28;20249;-86
2021/12/30 06:28:20;;;;;;;1.80;1.60;;;15.00;99.90;;;;;;4976430;28;20249;-84
2021/12/30 06:30:45;;;;;;;1.73;1.60;;;15.00;99.90;;;;;;4976321;28;20197;-82
2021/12/30 06:33:11;;;;;;;1.85;1.60;;;15.00;99.90;;;;;;4991852;28;20256;-85
2021/12/30 06:35:37;;;;;;;1.83;1.30;;;15.00;99.90;;;;;;4976533;28;20162;-87
2021/12/30 06:38:03;;;;;;;1.30;1.20;;;15.00;99.90;;;;;;4976185;28;20220;-87
2021/12/30 06:40:29;;;;;;;1.48;1.38;;;14.90;99.90;;;;;;4975965;28;20162;-80
2021/12/30 06:42:55;;;;;;;2.13;1.40;;;14.90;99.90;;;;;;4976494;28;20174;-86
2021/12/30 06:45:20;;;;;;;3.40;1.67;;;14.90;99.90;;;;;;4976443;28;20174;-83
2021/12/30 06:47:47;;;;;;;2.15;1.55;;;14.90;99.90;;;;;;4976244;28;20169;-82
2021/12/30 06:50:14;;;;;;;1.38;1.27;;;15.00;99.90;;;;;;4976389;28;20280;-86
2021/12/30 06:52:40;;;;;;;3.72;3.38;;;15.10;99.90;;;;;;4976842;28;20165;-83
2021/12/30 06:55:07;;;;;;;6.15;3.40;;;15.20;99.90;;;;;;4976185;28;20244;-86
2021/12/30 06:57:33;;;;;;;2.28;2.08;;;15.10;99.90;;;;;;4990909;28;20213;-85
2021/12/30 06:59:59;;;;;;;2.22;2.03;;;15.20;99.90;;;;;;4975833;28;20186;-80
2021/12/30 07:02:25;;;;;;;2.50;2.30;;;15.20;99.90;;;;;;4975288;28;20177;-80
2021/12/30 07:04:50;;;;;;;2.05;1.90;;;15.20;99.90;;;;;;4975687;28;20693;-79
2021/12/30 07:07:16;;;;;;;2.20;2.00;;;15.20;99.90;;;;;;4975333;28;20197;-81
2021/12/30 07:09:42;;;;;;;2.08;1.88;;;15.20;99.90;;;;;;4974905;28;20186;-81
2021/12/30 07:12:08;;;;;;;2.47;2.20;;;15.10;99.90;;;;;;4975337;28;20538;-84
2021/12/30 07:14:33;;;;;;;2.78;2.38;;;15.10;99.90;;;;;;4976675;28;20174;-88
2021/12/30 07:16:59;;;;;;;3.92;2.88;;;15.20;99.90;;;;;;4990356;28;20205;-78
2021/12/30 07:19:25;;;;;;;3.63;2.42;;;15.20;99.90;;;;;;4975618;28;20198;-87
2021/12/30 07:21:50;;;;;;;6.10;4.35;;;15.00;99.90;;;;;;4975765;28;20184;-85
2021/12/30 07:24:17;;;;;;;3.00;2.42;;;15.00;99.90;;;;;;4975665;28;20634;-87
2021/12/30 07:26:42;;;;;;;3.75;2.80;;;14.90;99.90;;;;;;4975979;28;20260;-80
2021/12/30 07:29:08;;;;;;;4.25;2.70;;;14.90;99.90;;;;;;4975715;28;20220;-83
2021/12/30 07:31:34;;;;;;;2.88;1.90;;;15.00;99.90;;;;;;4976096;28;20189;-83
2021/12/30 07:34:00;;;;;;;2.83;2.60;;;15.10;99.90;;;;;;4978498;28;20177;-85
2021/12/30 07:36:25;;;;;;;2.58;2.38;;;15.10;99.90;;;;;;4979603;28;20194;-85
2021/12/30 07:38:51;;;;;;;2.15;1.70;;;15.10;99.90;;;;;;4979339;28;20280;-78
2021/12/30 07:41:17;;;;;;;1.98;1.67;;;15.10;99.90;;;;;;5003927;28;20178;-80
2021/12/30 07:43:43;;;;;;;1.77;1.55;;;15.10;99.90;;;;;;4980543;28;20204;-83
2021/12/30 07:46:09;;;;;;;6.50;1.95;;;15.10;99.90;;;;;;4986318;28;20197;-80
2021/12/30 07:48:36;;;;;;;4.03;1.90;;;15.10;99.90;;;;;;4971304;28;20646;-84
2021/12/30 07:51:02;;;;;;;3.70;2.55;;;15.20;99.90;;;;;;4978908;28;20170;-78
2021/12/30 07:53:28;;;;;;;6.55;2.13;;;15.30;99.90;;;;;;4982214;28;20166;-79
2021/12/30 07:55:53;;;;;;;3.38;3.05;;;15.20;99.90;;;;;;4997626;28;20198;-79
2021/12/30 07:58:20;;;;;;;3.22;2.75;;;15.30;99.90;;;;;;4981204;28;20237;-79
2021/12/30 08:00:46;;;;;;;7.45;3.45;;;15.20;99.90;;;;;;4979003;28;20170;-78
2021/12/30 08:03:11;;;;;;;4.28;2.70;;;15.20;99.90;;;;;;4994066;28;20264;-81
2021/12/30 08:05:37;;;;;;;3.33;2.95;;;15.20;99.90;;;;;;4980939;28;20215;-80
2021/12/30 08:08:03;;;;;;;5.57;2.60;;;15.20;99.90;;;;;;4979553;28;20212;-83
2021/12/30 08:10:29;;;;;;;4.47;2.40;;;15.20;99.90;;;;;;4976925;28;20177;-82
2021/12/30 08:12:56;;;;;;;2.83;2.63;;;15.20;99.90;;;;;;4974837;28;20169;-84
2021/12/30 08:15:22;;;;;;;2.70;2.45;;;15.20;99.90;;;;;;4974099;28;20166;-82
2021/12/30 08:17:49;;;;;;;5.20;3.05;;;15.20;99.90;;;;;;4973938;28;20625;-78
2021/12/30 08:20:16;;;;;;;3.05;2.70;;;15.30;99.90;;;;;;4974410;28;20181;-88
2021/12/30 08:22:42;;;;;;;7.20;3.15;;;15.30;99.90;;;;;;4988426;28;20642;-81
2021/12/30 08:25:10;;;;;;;4.68;3.35;;;15.30;99.90;;;;;;4973794;28;20619;-82
2021/12/30 08:27:36;;;;;;;6.03;3.80;;;15.40;99.90;;;;;;4973969;28;20206;-83
2021/12/30 08:30:09;;;;;;;4.55;2.70;;;15.40;99.90;;;;;;4989112;28;20264;-85
2021/12/30 08:32:35;;;;;;;8.73;3.40;;;15.40;99.90;;;;;;4973985;28;20626;-86
2021/12/30 08:35:02;;;;;;;19.20;4.47;;;15.50;99.90;;;;;;4974695;28;20257;-80
2021/12/30 08:37:27;;;;;;;4.40;2.85;;;15.50;99.90;;;;;;4989714;28;20296;-87
2021/12/30 08:39:53;;;;;;;9.30;2.63;;;15.60;99.90;;;;;;4963162;28;20627;-78
2021/12/30 08:42:21;;;;;;;4.68;2.65;;;15.70;99.90;;;;;;4964265;28;20185;-78
2021/12/30 08:44:48;;;;;;;8.45;2.53;;;15.80;99.90;;;;;;4959537;28;20651;-87
2021/12/30 08:47:15;;;;;;;5.15;2.33;;;15.90;99.90;;;;;;4954734;29;20522;-79
2021/12/30 08:49:44;;;;;;;9.65;2.55;;;15.80;99.90;;;;;;4969923;28;20218;-86
2021/12/30 08:52:10;;;;;;;5.13;2.45;;;15.80;99.90;;;;;;4956466;28;20623;-84
2021/12/30 08:54:36;;;;;;;5.70;2.70;;;15.70;99.90;;;;;;4974086;28;20256;-91
2021/12/30 08:57:03;;;;;;;9.52;2.78;;;15.70;99.90;;;;;;4974890;28;20213;-79
2021/12/30 08:59:29;;;;;;;5.35;2.25;;;15.60;99.90;;;;;;4973644;28;20185;-79
2021/12/30 09:01:55;;;;;;;10.05;2.10;;;15.60;99.90;;;;;;4974176;28;20178;-78
2021/12/30 09:04:21;;;;;;;3.83;1.95;;;15.80;99.90;;;;;;4973414;28;20262;-77
2021/12/30 09:06:46;;;;;;;5.63;2.22;;;15.90;99.90;;;;;;4974318;28;20244;-85
2021/12/30 09:09:12;;;;;;;6.30;1.77;;;15.70;99.90;;;;;;4973614;28;20248;-79
2021/12/30 09:11:38;;;;;;;7.13;1.95;;;15.60;99.90;;;;;;4972387;28;20170;-79
2021/12/30 09:14:03;;;;;;;3.13;2.05;;;15.60;99.90;;;;;;4974315;28;20189;-81
2021/12/30 09:16:29;;;;;;;6.75;1.70;;;15.60;99.90;;;;;;4973313;28;20196;-84
2021/12/30 09:18:55;;;;;;;5.10;1.80;;;15.60;99.90;;;;;;4973355;28;20228;-78
2021/12/30 09:21:20;;;;;;;6.60;2.05;;;15.40;99.90;;;;;;4973705;28;20667;-84
2021/12/30 09:23:46;;;;;;;7.03;2.00;;;15.40;99.90;;;;;;4973467;28;20178;-82
2021/12/30 09:26:12;;;;;;;5.63;1.77;;;15.40;99.90;;;;;;4973145;28;20649;-80
2021/12/30 09:28:37;;;;;;;6.70;1.88;;;15.40;99.90;;;;;;4975575;28;20190;-83
2021/12/30 09:31:03;;;;;;;2.35;1.63;;;15.30;99.90;;;;;;4975926;28;20316;-81
2021/12/30 09:33:29;;;;;;;7.72;1.88;;;15.30;99.90;;;;;;4977205;28;20675;-79
2021/12/30 09:35:54;;;;;;;7.85;2.17;;;15.40;99.90;;;;;;4976823;28;20295;-79
2021/12/30 09:38:20;;;;;;;3.15;2.58;;;15.30;99.90;;;;;;4976571;28;20572;-83
2021/12/30 09:40:46;;;;;;;3.20;2.65;;;15.40;99.90;;;;;;4977017;28;20174;-84
2021/12/30 09:43:12;;;;;;;4.80;3.33;;;15.40;99.90;;;;;;4991954;28;20173;-84
2021/12/30 09:45:40;;;;;;;4.28;2.63;;;15.50;99.90;;;;;;4976272;28;20166;-84
2021/12/30 09:48:08;;;;;;;3.78;2.70;;;15.40;99.90;;;;;;4976348;28;20624;-79
2021/12/30 09:50:41;;;;;;;8.45;2.35;;;15.30;99.90;;;;;;4976949;28;20701;-84
2021/12/30 09:53:07;;;;;;;4.53;2.30;;;15.30;99.90;;;;;;4976747;28;20273;-82
2021/12/30 09:55:33;;;;;;;2.53;2.00;;;15.30;99.90;;;;;;4976578;28;20182;-80
2021/12/30 09:58:00;;;;;;;5.22;2.22;;;15.30;99.90;;;;;;4976814;28;20201;-78
2021/12/30 10:00:26;;;;;;;3.13;2.47;;;15.30;99.90;;;;;;4991597;28;20177;-83
2021/12/30 10:02:52;;;;;;;3.97;2.75;;;15.30;99.90;;;;;;4976475;28;20169;-78
2021/12/30 10:05:20;;;;;;;3.67;2.30;;;15.40;99.90;;;;;;4976221;28;20181;-80
2021/12/30 10:07:47;;;;;;;3.58;2.15;;;15.30;99.90;;;;;;4976389;28;20173;-79
2021/12/30 10:10:31;;;;;;;5.00;2.13;;;15.30;99.90;;;;;;4976219;28;20182;-80
2021/12/30 10:12:58;;;;;;;2.45;1.92;;;15.30;99.90;;;;;;4976614;28;20181;-84
2021/12/30 10:15:24;;;;;;;3.00;1.83;;;15.40;99.90;;;;;;4976332;28;20166;-84
2021/12/30 10:18:00;;;;;;;3.92;2.30;;;15.50;99.90;;;;;;4976236;28;20709;-83
2021/12/30 10:20:31;;;;;;;2.38;1.73;;;15.50;99.90;;;;;;4976052;28;20705;-78
2021/12/30 10:23:11;;;;;;;7.00;1.80;;;15.60;99.90;;;;;;4976136;28;20216;-79
2021/12/30 10:25:39;;;;;;;2.50;1.85;;;15.50;99.90;;;;;;4975706;28;20169;-79
2021/12/30 10:28:31;;;;;;;4.25;2.25;;;15.60;99.90;;;;;;4976148;28;20166;-80
2021/12/30 10:31:22;;;;;;;3.20;1.80;;;15.70;99.90;;;;;;4976162;28;20169;-80
2021/12/30 10:34:04;;;;;;;4.10;2.15;;;15.60;99.90;;;;;;4979953;28;20182;-83
2021/12/30 10:36:34;;;;;;;6.75;2.53;;;15.70;99.90;;;;;;4975583;28;20639;-83
2021/12/30 10:39:24;;;;;;;5.45;2.40;;;15.70;99.90;;;;;;4974918;28;20217;-84
2021/12/30 10:41:53;;;;;;;7.50;2.00;;;15.60;99.90;;;;;;4976141;28;20184;-79
2021/12/30 10:44:19;;;;;;;6.70;2.10;;;15.60;99.90;;;;;;4975412;28;20181;-83
2021/12/30 10:46:46;;;;;;;3.28;2.28;;;15.70;99.90;;;;;;4975508;28;20639;-80
2021/12/30 10:49:27;;;;;;;4.57;2.40;;;15.80;99.90;;;;;;4975391;28;20192;-81
2021/12/30 10:51:57;;;;;;;4.47;2.10;;;15.90;99.90;;;;;;4975356;28;20221;-78
2021/12/30 10:54:36;;;;;;;5.88;2.55;;;15.90;99.90;;;;;;4975304;28;20205;-84
2021/12/30 10:57:04;;;;;;;3.53;2.00;;;16.10;99.90;;;;;;4975289;28;20684;-78
2021/12/30 10:59:38;;;;;;;4.22;2.22;;;16.30;99.90;;;;;;4975391;28;20523;-80
2021/12/30 11:02:16;;;;;;;6.40;2.38;;;16.30;99.90;;;;;;4975594;28;20169;-83
2021/12/30 11:05:11;;;;;;;5.68;2.47;;;16.10;99.90;;;;;;4975316;28;20183;-80
2021/12/30 11:07:43;;;;;;;2.47;2.28;;;16.20;99.90;;;;;;4982723;28;20760;-79
2021/12/30 11:10:10;;;;;;;5.10;1.90;;;16.30;99.90;;;;;;4976302;28;20192;-80
2021/12/30 11:12:41;;;;;;;11.52;4.25;;;16.20;99.90;;;;;;4975677;28;20731;-84
2021/12/30 11:15:25;;;;;;;3.15;2.30;;;16.20;99.90;;;;;;4990505;28;20197;-84
2021/12/30 11:18:04;;;;;;;6.72;2.80;;;16.10;99.90;;;;;;4975084;28;20693;-81
2021/12/30 11:20:36;;;;;;;4.53;1.60;;;16.20;99.90;;;;;;4975350;28;20172;-80
2021/12/30 11:23:02;;;;;;;8.63;2.30;;;16.20;99.90;;;;;;4975016;28;20166;-78
2021/12/30 11:25:28;;;;;;;3.33;2.30;;;15.90;99.90;;;;;;4974357;28;20281;-83
2021/12/30 11:27:58;;;;;;;5.18;2.22;;;15.80;99.90;;;;;;4974940;28;20169;-83
2021/12/30 11:30:23;;;;;;;4.15;2.05;;;15.70;99.90;;;;;;4975214;28;20177;-79
2021/12/30 11:32:49;;;;;;;6.75;2.13;;;15.60;99.90;;;;;;4974907;28;20162;-82
2021/12/30 11:35:18;;;;;;;3.50;2.45;;;15.60;99.90;;;;;;4975445;28;20181;-80
2021/12/30 11:37:45;;;;;;;3.53;2.15;;;15.70;99.90;;;;;;4975019;28;20210;-83
2021/12/30 11:40:13;;;;;;;3.63;2.63;;;15.70;99.90;;;;;;4974592;28;20197;-79
2021/12/30 11:42:42;;;;;;;3.85;1.77;;;15.80;99.90;;;;;;4974467;28;20172;-82
2021/12/30 11:45:25;;;;;;;4.13;1.90;;;15.90;99.90;;;;;;4989295;28;20177;-80
2021/12/30 11:47:51;;;;;;;6.10;2.20;;;15.80;99.90;;;;;;4973964;28;20177;-78
2021/12/30 11:50:37;;;;;;;6.55;2.25;;;15.80;99.90;;;;;;4973644;28;20209;-82
2021/12/30 11:53:24;;;;;;;3.80;2.63;;;15.70;99.90;;;;;;4974248;28;20704;-81
2021/12/30 11:55:57;;;;;;;3.70;2.35;;;15.80;99.90;;;;;;4973727;28;20193;-75
2021/12/30 11:58:49;;;;;;;9.60;2.55;;;15.80;99.90;;;;;;4974781;28;20217;-76
2021/12/30 12:01:14;;;;;;;3.13;1.83;;;15.90;99.90;;;;;;4974080;28;20205;-78
2021/12/30 12:03:43;;;;;;;4.32;2.10;;;16.00;99.90;;;;;;4974430;28;20251;-87
2021/12/30 12:06:24;;;;;;;6.38;1.98;;;16.10;99.90;;;;;;4974496;28;20168;-80
2021/12/30 12:08:51;;;;;;;5.30;2.63;;;16.20;99.90;;;;;;4975231;28;20204;-86
2021/12/30 12:11:19;;;;;;;2.10;1.83;;;16.00;99.90;;;;;;4974645;28;20174;-79
2021/12/30 12:13:48;;;;;;;5.70;2.00;;;16.00;99.90;;;;;;4974448;28;20604;-85
2021/12/30 12:16:16;;;;;;;4.00;2.08;;;16.00;99.90;;;;;;4975011;28;20166;-84
2021/12/30 12:19:04;;;;;;;5.68;3.08;;;16.10;99.90;;;;;;4974415;28;20190;-79
2021/12/30 12:21:42;;;;;;;3.97;2.13;;;16.30;99.90;;;;;;4974767;28;20169;-79
2021/12/30 12:24:20;;;;;;;4.10;2.72;;;16.20;99.90;;;;;;4989223;28;20686;-83
2021/12/30 12:26:46;;;;;;;9.07;2.17;;;16.20;99.90;;;;;;4974159;28;20253;-84
2021/12/30 12:29:25;;;;;;;4.68;2.70;;;16.20;99.90;;;;;;4989425;28;20281;-89
2021/12/30 12:31:57;;;;;;;6.95;2.90;;;16.10;99.90;;;;;;4974158;28;20181;-77
2021/12/30 12:34:41;;;;;;;7.70;2.33;;;16.10;99.90;;;;;;4989393;28;20540;-87
2021/12/30 12:37:40;;;;;;;12.55;2.38;;;16.10;99.90;;;;;;4974406;28;20328;-80
2021/12/30 12:40:12;;;;;;;3.53;1.90;;;15.90;99.90;;;;;;4974538;28;20213;-87
2021/12/30 12:42:59;;;;;;;6.15;2.22;;;15.90;99.90;;;;;;4974474;28;20714;-79
2021/12/30 12:45:32;;;;;;;8.85;2.35;;;16.00;99.90;;;;;;4980117;28;20511;-79
2021/12/30 12:48:16;;;;;;;4.55;2.20;;;16.00;99.90;;;;;;4974700;28;20690;-83
2021/12/30 12:50:44;;;;;;;4.20;2.10;;;15.90;99.90;;;;;;4973665;28;20236;-86
2021/12/30 12:53:37;;;;;;;11.50;3.03;;;16.00;99.90;;;;;;4974706;28;20534;-83